createdAt,value
2023-04-02T00:00:10.019Z,6.78
2023-04-02T00:05:32.018Z,7.13
2023-04-02T00:10:38.097Z,6.53
2023-04-02T00:15:44.360Z,12.80
2023-04-02T00:20:51.234Z,7.40
2023-04-02T00:25:54.179Z,11.07
2023-04-02T00:30:59.813Z,11.82
2023-04-02T00:36:08.597Z,8.90
2023-04-02T00:41:17.020Z,5.75
2023-04-02T00:46:24.502Z,9.52
2023-04-02T00:51:36.244Z,7.65
2023-04-02T00:56:52.427Z,10.40
2023-04-02T01:02:18.255Z,9.25
2023-04-02T01:07:33.245Z,7.32
2023-04-02T01:12:47.304Z,6.95
2023-04-02T01:18:18.816Z,7.70
2023-04-02T01:23:25.897Z,5.28
2023-04-02T01:29:10.705Z,6.60
2023-04-02T01:34:17.584Z,6.45
2023-04-02T01:39:47.562Z,6.40
2023-04-02T01:44:51.546Z,7.53
2023-04-02T01:50:01.901Z,6.53
2023-04-02T01:55:08.746Z,9.63
2023-04-02T02:00:16.169Z,9.50
2023-04-02T02:05:25.353Z,7.25
2023-04-02T02:10:37.283Z,9.20
2023-04-02T02:15:41.268Z,7.47
2023-04-02T02:20:44.783Z,7.70
2023-04-02T02:25:48.374Z,9.30
2023-04-02T02:30:58.140Z,9.07
2023-04-02T02:36:37.578Z,11.27
2023-04-02T02:41:55.535Z,11.75
2023-04-02T02:47:03.776Z,13.48
2023-04-02T02:52:09.216Z,20.63
2023-04-02T02:57:33.144Z,16.00
2023-04-02T03:02:39.252Z,19.73
2023-04-02T03:07:44.656Z,13.25
2023-04-02T03:13:15.106Z,12.02
2023-04-02T03:23:47.812Z,11.85
2023-04-02T03:28:58.102Z,10.30
2023-04-02T03:34:11.462Z,6.47
2023-04-02T03:39:44.267Z,7.68
2023-04-02T03:44:53.799Z,6.50
2023-04-02T03:50:04.379Z,8.50
2023-04-02T03:55:26.892Z,9.98
2023-04-02T04:00:42.469Z,15.10
2023-04-02T04:06:03.147Z,16.52
2023-04-02T04:11:11.338Z,8.75
2023-04-02T04:16:30.493Z,12.63
2023-04-02T04:21:40.189Z,10.77
2023-04-02T04:26:58.584Z,9.35
2023-04-02T04:32:18.686Z,14.40
2023-04-02T04:37:29.976Z,10.00
2023-04-02T04:42:38.257Z,12.38
2023-04-02T04:47:51.908Z,12.52
2023-04-02T04:52:55.297Z,14.65
2023-04-02T04:58:09.435Z,21.05
2023-04-02T05:03:54.391Z,18.23
2023-04-02T05:09:00.548Z,24.40
2023-04-02T05:14:17.232Z,15.75
2023-04-02T05:19:32.249Z,15.75
2023-04-02T05:24:38.128Z,16.40
2023-04-02T05:29:46.867Z,12.27
2023-04-02T05:34:56.385Z,13.98
2023-04-02T05:40:14.568Z,12.27
2023-04-02T05:45:41.513Z,7.38
2023-04-02T05:50:51.432Z,8.70
2023-04-02T05:56:11.315Z,8.85
2023-04-02T06:01:21.440Z,6.13
2023-04-02T06:06:29.879Z,5.90
2023-04-02T06:11:42.548Z,8.05
2023-04-02T06:16:49.091Z,4.63
2023-04-02T06:22:01.341Z,10.38
2023-04-02T06:27:07.408Z,4.40
2023-04-02T06:32:12.201Z,8.85
2023-04-02T06:37:40.330Z,8.35
2023-04-02T06:42:58.327Z,6.95
2023-04-02T06:48:32.093Z,9.15
2023-04-02T06:53:44.996Z,5.88
2023-04-02T06:58:50.551Z,5.25
2023-04-02T07:03:54.728Z,6.82
2023-04-02T07:09:12.099Z,6.38
2023-04-02T07:14:17.911Z,5.85
2023-04-02T07:19:23.277Z,5.80
2023-04-02T07:24:30.583Z,7.75
2023-04-02T07:29:34.091Z,6.68
2023-04-02T07:34:39.224Z,6.75
2023-04-02T07:39:41.955Z,12.55
2023-04-02T07:44:44.777Z,5.40
2023-04-02T07:49:47.662Z,7.32
2023-04-02T07:54:50.566Z,4.78
2023-04-02T07:59:56.846Z,6.28
2023-04-02T08:04:59.311Z,3.55
2023-04-02T08:10:02.210Z,4.15
2023-04-02T08:15:07.640Z,7.35
2023-04-02T08:20:18.385Z,5.40
2023-04-02T08:25:21.260Z,6.20
2023-04-02T08:30:24.194Z,4.53
2023-04-02T08:35:26.715Z,15.20
2023-04-02T08:40:39.568Z,4.55
2023-04-02T08:46:22.310Z,5.00
2023-04-02T08:51:28.457Z,7.53
2023-04-02T08:56:40.531Z,2.30
2023-04-02T09:01:53.527Z,3.67
2023-04-02T09:06:57.693Z,4.13
2023-04-02T09:12:04.667Z,7.72
2023-04-02T09:17:25.594Z,5.40
2023-04-02T09:22:34.358Z,4.53
2023-04-02T09:27:37.178Z,4.55
2023-04-02T09:32:54.411Z,6.35
2023-04-02T09:38:23.365Z,8.02
2023-04-02T09:43:33.275Z,11.07
2023-04-02T09:48:45.293Z,8.18
2023-04-02T09:53:51.380Z,10.65
2023-04-02T09:59:13.612Z,7.35
2023-04-02T10:04:37.075Z,8.18
2023-04-02T10:09:39.456Z,4.60
2023-04-02T10:14:47.196Z,4.70
2023-04-02T10:19:55.327Z,7.10
2023-04-02T10:25:00.366Z,6.28
2023-04-02T10:30:33.661Z,4.68
2023-04-02T10:36:02.500Z,12.35
2023-04-02T10:41:50.720Z,7.25
2023-04-02T10:47:22.670Z,3.75
2023-04-02T10:52:39.296Z,9.32
2023-04-02T10:57:44.345Z,6.47
2023-04-02T11:02:56.403Z,6.57
2023-04-02T11:08:11.488Z,4.82
2023-04-02T11:13:23.108Z,4.18
2023-04-02T11:18:36.334Z,4.57
2023-04-02T11:23:58.746Z,5.00
2023-04-02T11:29:08.871Z,5.35
2023-04-02T11:34:36.308Z,11.32
2023-04-02T11:39:54.331Z,3.45
2023-04-02T11:45:01.022Z,7.10
2023-04-02T11:50:06.603Z,7.80
2023-04-02T11:55:25.628Z,4.10
2023-04-02T12:00:44.357Z,7.82
2023-04-02T12:05:59.806Z,5.38
2023-04-02T12:11:04.150Z,6.72
2023-04-02T12:16:12.914Z,5.68
2023-04-02T12:21:17.448Z,4.70
2023-04-02T12:26:43.142Z,3.45
2023-04-02T12:31:56.821Z,6.63
2023-04-02T12:37:04.188Z,6.53
2023-04-02T12:42:29.141Z,4.22
2023-04-02T12:47:32.153Z,6.60
2023-04-02T12:52:34.891Z,6.03
2023-04-02T12:57:39.881Z,5.70
2023-04-02T13:02:50.894Z,6.20
2023-04-02T13:07:53.400Z,10.07
2023-04-02T13:13:01.314Z,7.35
2023-04-02T13:18:12.991Z,6.43
2023-04-02T13:23:28.040Z,5.70
2023-04-02T13:28:31.033Z,10.50
2023-04-02T13:33:33.490Z,4.90
2023-04-02T13:38:35.900Z,5.13
2023-04-02T13:43:38.458Z,5.85
2023-04-02T13:48:40.913Z,8.52
2023-04-02T13:53:43.900Z,5.53
2023-04-02T13:58:46.967Z,9.15
2023-04-02T14:03:51.557Z,10.27
2023-04-02T14:09:11.334Z,4.47
2023-04-02T14:14:45.360Z,8.18
2023-04-02T14:20:04.200Z,5.82
2023-04-02T14:25:12.437Z,6.50
2023-04-02T14:30:39.195Z,6.70
2023-04-02T14:35:47.436Z,6.35
2023-04-02T14:40:59.793Z,5.78
2023-04-02T14:46:04.365Z,8.55
2023-04-02T14:51:31.373Z,10.13
2023-04-02T14:56:42.553Z,9.18
2023-04-02T15:01:49.975Z,10.48
2023-04-02T15:06:56.964Z,6.40
2023-04-02T15:12:07.844Z,7.90
2023-04-02T15:17:12.223Z,8.80
2023-04-02T15:22:28.857Z,13.43
2023-04-02T15:27:52.303Z,14.25
2023-04-02T15:32:59.088Z,12.25
2023-04-02T15:38:07.288Z,11.75
2023-04-02T15:43:28.057Z,12.25
2023-04-02T15:48:33.532Z,14.88
2023-04-02T15:53:56.033Z,14.98
2023-04-02T15:59:25.833Z,16.27
2023-04-02T16:04:50.062Z,11.75
2023-04-02T16:10:04.963Z,16.27
2023-04-02T16:15:30.887Z,15.88
2023-04-02T16:20:39.772Z,13.55
2023-04-02T16:25:48.908Z,12.98
2023-04-02T16:31:14.025Z,16.85
2023-04-02T16:36:22.251Z,14.35
2023-04-02T16:41:33.823Z,14.27
2023-04-02T16:46:44.506Z,12.52
2023-04-02T16:52:37.615Z,16.15
2023-04-02T16:58:01.825Z,11.60
2023-04-02T17:03:23.319Z,14.50
2023-04-02T17:08:31.216Z,23.33
2023-04-02T17:14:08.276Z,13.02
2023-04-02T17:19:13.616Z,13.57
2023-04-02T17:24:26.350Z,10.82
2023-04-02T17:29:38.913Z,12.65
2023-04-02T17:34:41.947Z,9.93
2023-04-02T17:40:13.835Z,11.95
2023-04-02T17:45:25.663Z,9.60
2023-04-02T17:50:43.672Z,7.47
2023-04-02T17:55:58.100Z,5.45
2023-04-02T18:01:18.528Z,7.13
2023-04-02T18:06:38.326Z,13.18
2023-04-02T18:11:46.453Z,14.70
2023-04-02T18:17:18.103Z,10.48
2023-04-02T18:22:31.457Z,10.73
2023-04-02T18:28:05.307Z,9.77
2023-04-02T18:33:26.504Z,9.02
2023-04-02T18:38:31.913Z,8.95
2023-04-02T18:43:40.695Z,12.65
2023-04-02T18:49:12.864Z,12.32
2023-04-02T18:54:20.909Z,30.15
2023-04-02T18:59:45.115Z,39.88
2023-04-02T19:04:58.474Z,28.95
2023-04-02T19:10:09.869Z,23.13
2023-04-02T19:15:20.550Z,31.05
2023-04-02T19:20:51.152Z,34.58
2023-04-02T19:26:17.670Z,35.30
2023-04-02T19:31:47.947Z,32.35
2023-04-02T19:37:22.242Z,27.80
2023-04-02T19:42:46.368Z,15.13
2023-04-02T19:47:48.960Z,12.02
2023-04-02T19:52:51.435Z,15.07
2023-04-02T19:58:00.983Z,16.20
2023-04-02T20:03:11.345Z,21.42
2023-04-02T20:08:14.477Z,27.85
2023-04-02T20:13:16.768Z,21.52
2023-04-02T20:18:20.776Z,14.02
2023-04-02T20:23:24.124Z,20.67
2023-04-02T20:28:29.434Z,23.52
2023-04-02T20:33:32.824Z,13.43
2023-04-02T20:38:36.226Z,9.98
2023-04-02T20:43:40.826Z,10.25
2023-04-02T20:48:44.135Z,9.20
2023-04-02T20:53:46.826Z,9.48
2023-04-02T20:58:50.957Z,7.57
2023-04-02T21:04:02.573Z,8.55
2023-04-02T21:09:08.723Z,9.55
2023-04-02T21:14:11.941Z,11.25
2023-04-02T21:19:15.393Z,9.48
2023-04-02T21:24:18.223Z,7.03
2023-04-02T21:29:21.299Z,8.88
2023-04-02T21:34:23.737Z,11.73
2023-04-02T21:39:26.514Z,30.65
2023-04-02T21:44:29.459Z,27.42
2023-04-02T21:49:32.165Z,29.98
2023-04-02T21:54:34.571Z,25.90
2023-04-02T21:59:38.019Z,21.33
2023-04-02T22:04:41.484Z,35.53
2023-04-02T22:09:44.018Z,34.20
2023-04-02T22:14:46.800Z,31.58
2023-04-02T22:19:49.282Z,27.20
2023-04-02T22:24:51.526Z,26.75
2023-04-02T22:29:54.551Z,25.63
2023-04-02T22:34:56.893Z,17.13
2023-04-02T22:39:59.295Z,13.10
2023-04-02T22:45:04.496Z,13.88
2023-04-02T22:50:07.715Z,17.52
2023-04-02T22:55:12.327Z,14.60
2023-04-02T23:00:17.929Z,13.20
2023-04-02T23:05:21.068Z,14.43
2023-04-02T23:10:23.804Z,18.15
2023-04-02T23:15:31.310Z,25.05
2023-04-02T23:20:34.024Z,28.60
2023-04-02T23:25:38.423Z,29.20
2023-04-02T23:30:44.642Z,30.67
2023-04-02T23:35:46.993Z,23.33
2023-04-02T23:40:49.628Z,18.17
2023-04-02T23:45:52.020Z,22.27
2023-04-02T23:50:54.374Z,20.35
2023-04-02T23:55:56.798Z,21.48
